sensor_id;sensor_type;location;lat;lon;timestamp;pressure;altitude;pressure_sealevel;temperature;humidity
33422;BME280;19763;55.798;37.782;2023-02-19T00:01:33;145790.59;;;-6.25;77.59
33422;BME280;19763;55.798;37.782;2023-02-19T00:04:05;145818.41;;;-6.13;78.56
33422;BME280;19763;55.798;37.782;2023-02-19T00:06:33;145807.06;;;-6.18;77.79
33422;BME280;19763;55.798;37.782;2023-02-19T00:08:59;145751.44;;;-6.40;78.61
33422;BME280;19763;55.798;37.782;2023-02-19T00:11:28;145738.78;;;-6.46;77.44
33422;BME280;19763;55.798;37.782;2023-02-19T00:13:55;145791.91;;;-6.24;79.21
33422;BME280;19763;55.798;37.782;2023-02-19T00:16:24;145736.28;;;-6.47;79.71
33422;BME280;19763;55.798;37.782;2023-02-19T00:18:51;145710.97;;;-6.57;79.13
33422;BME280;19763;55.798;37.782;2023-02-19T00:21:17;145741.31;;;-6.45;79.27
33422;BME280;19763;55.798;37.782;2023-02-19T00:23:48;145719.84;;;-6.53;79.95
33422;BME280;19763;55.798;37.782;2023-02-19T00:26:13;145747.63;;;-6.42;79.44
33422;BME280;19763;55.798;37.782;2023-02-19T00:28:39;145779.25;;;-6.29;79.28
33422;BME280;19763;55.798;37.782;2023-02-19T00:31:05;145747.63;;;-6.42;79.66
33422;BME280;19763;55.798;37.782;2023-02-19T00:33:32;145769.13;;;-6.33;79.17
33422;BME280;19763;55.798;37.782;2023-02-19T00:36:04;145791.91;;;-6.24;78.22
33422;BME280;19763;55.798;37.782;2023-02-19T00:38:31;145779.25;;;-6.29;78.27
33422;BME280;19763;55.798;37.782;2023-02-19T00:40:59;145810.84;;;-6.16;77.84
33422;BME280;19763;55.798;37.782;2023-02-19T00:43:25;145827.28;;;-6.10;77.79
33422;BME280;19763;55.798;37.782;2023-02-19T00:45:51;145815.88;;;-6.14;77.20
33422;BME280;19763;55.798;37.782;2023-02-19T00:48:16;145795.69;;;-6.22;79.19
33422;BME280;19763;55.798;37.782;2023-02-19T00:50:42;145786.81;;;-6.26;78.47
33422;BME280;19763;55.798;37.782;2023-02-19T00:53:07;145757.75;;;-6.38;79.52
33422;BME280;19763;55.798;37.782;2023-02-19T00:55:33;145778.00;;;-6.30;79.82
33422;BME280;19763;55.798;37.782;2023-02-19T00:57:59;145745.09;;;-6.43;78.97
33422;BME280;19763;55.798;37.782;2023-02-19T01:00:24;145753.97;;;-6.39;79.77
33422;BME280;19763;55.798;37.782;2023-02-19T01:02:50;145767.88;;;-6.34;79.67
33422;BME280;19763;55.798;37.782;2023-02-19T01:05:15;145807.06;;;-6.18;78.32
33422;BME280;19763;55.798;37.782;2023-02-19T01:07:41;145801.97;;;-6.20;77.82
33422;BME280;19763;55.798;37.782;2023-02-19T01:10:06;145818.41;;;-6.13;79.79
33422;BME280;19763;55.798;37.782;2023-02-19T01:12:32;145818.41;;;-6.13;79.02
33422;BME280;19763;55.798;37.782;2023-02-19T01:14:57;145827.28;;;-6.10;79.37
33422;BME280;19763;55.798;37.782;2023-02-19T01:17:23;145794.38;;;-6.23;79.26
33422;BME280;19763;55.798;37.782;2023-02-19T01:19:49;145834.88;;;-6.07;79.93
33422;BME280;19763;55.798;37.782;2023-02-19T01:22:15;145779.25;;;-6.29;79.40
33422;BME280;19763;55.798;37.782;2023-02-19T01:24:40;145791.91;;;-6.24;80.85
33422;BME280;19763;55.798;37.782;2023-02-19T01:27:06;145688.22;;;-6.66;80.13
33422;BME280;19763;55.798;37.782;2023-02-19T01:29:31;145713.50;;;-6.56;81.33
33422;BME280;19763;55.798;37.782;2023-02-19T01:31:57;145741.31;;;-6.45;79.90
33422;BME280;19763;55.798;37.782;2023-02-19T01:34:23;145678.13;;;-6.70;80.13
33422;BME280;19763;55.798;37.782;2023-02-19T01:36:48;145695.81;;;-6.63;79.89
33422;BME280;19763;55.798;37.782;2023-02-19T01:39:14;145690.78;;;-6.65;80.20
33422;BME280;19763;55.798;37.782;2023-02-19T01:41:40;145708.47;;;-6.58;80.01
33422;BME280;19763;55.798;37.782;2023-02-19T01:46:43;145736.28;;;-6.47;81.01
33422;BME280;19763;55.798;37.782;2023-02-19T01:49:31;145709.72;;;-6.57;78.84
33422;BME280;19763;55.798;37.782;2023-02-19T01:52:02;145674.34;;;-6.72;79.65
33422;BME280;19763;55.798;37.782;2023-02-19T01:54:31;145630.09;;;-6.90;79.52
33422;BME280;19763;55.798;37.782;2023-02-19T01:57:03;145700.91;;;-6.61;79.76
33422;BME280;19763;55.798;37.782;2023-02-19T01:59:32;145656.66;;;-6.79;79.92
33422;BME280;19763;55.798;37.782;2023-02-19T02:01:59;145611.16;;;-6.98;81.38
33422;BME280;19763;55.798;37.782;2023-02-19T02:04:24;145580.81;;;-7.10;81.38
33422;BME280;19763;55.798;37.782;2023-02-19T02:06:53;145589.69;;;-7.06;81.67
33422;BME280;19763;55.798;37.782;2023-02-19T02:09:21;145656.66;;;-6.79;81.15
33422;BME280;19763;55.798;37.782;2023-02-19T02:12:07;145635.19;;;-6.88;81.03
33422;BME280;19763;55.798;37.782;2023-02-19T02:14:36;145657.88;;;-6.79;79.88
33422;BME280;19763;55.798;37.782;2023-02-19T02:17:24;145650.31;;;-6.82;79.73
33422;BME280;19763;55.798;37.782;2023-02-19T02:20:24;145662.97;;;-6.77;81.06
33422;BME280;19763;55.798;37.782;2023-02-19T02:31:15;145568.22;;;-7.15;80.99
33422;BME280;19763;55.798;37.782;2023-02-19T02:33:54;145623.81;;;-6.92;81.19
33422;BME280;19763;55.798;37.782;2023-02-19T02:36:31;145627.59;;;-6.91;81.49
33422;BME280;19763;55.798;37.782;2023-02-19T02:38:59;145659.19;;;-6.78;80.97
33422;BME280;19763;55.798;37.782;2023-02-19T02:41:27;145655.41;;;-6.80;81.27
33422;BME280;19763;55.798;37.782;2023-02-19T02:43:53;145650.31;;;-6.82;80.35
33422;BME280;19763;55.798;37.782;2023-02-19T02:46:31;145687.00;;;-6.67;80.52
33422;BME280;19763;55.798;37.782;2023-02-19T02:49:03;145625.06;;;-6.92;80.59
33422;BME280;19763;55.798;37.782;2023-02-19T02:51:51;145646.53;;;-6.83;80.29
33422;BME280;19763;55.798;37.782;2023-02-19T02:54:44;145678.13;;;-6.70;80.40
33422;BME280;19763;55.798;37.782;2023-02-19T02:57:28;145593.47;;;-7.05;81.03
33422;BME280;19763;55.798;37.782;2023-02-19T02:59:54;145673.09;;;-6.72;81.14
33422;BME280;19763;55.798;37.782;2023-02-19T03:02:23;145616.19;;;-6.96;80.26
33422;BME280;19763;55.798;37.782;2023-02-19T03:10:58;145627.59;;;-6.91;80.72
33422;BME280;19763;55.798;37.782;2023-02-19T03:14:17;145655.41;;;-6.80;80.73
33422;BME280;19763;55.798;37.782;2023-02-19T03:17:09;145644.00;;;-6.84;82.52
33422;BME280;19763;55.798;37.782;2023-02-19T03:19:56;145656.66;;;-6.79;80.75
33422;BME280;19763;55.798;37.782;2023-02-19T03:22:30;145604.84;;;-7.00;82.33
33422;BME280;19763;55.798;37.782;2023-02-19T03:25:00;145602.28;;;-7.01;82.09
33422;BME280;19763;55.798;37.782;2023-02-19T03:27:48;145645.28;;;-6.84;81.63
33422;BME280;19763;55.798;37.782;2023-02-19T03:30:20;145640.19;;;-6.86;81.53
33422;BME280;19763;55.798;37.782;2023-02-19T03:32:53;145660.44;;;-6.78;81.54
33422;BME280;19763;55.798;37.782;2023-02-19T03:35:23;145636.41;;;-6.87;82.48
33422;BME280;19763;55.798;37.782;2023-02-19T03:43:56;145673.09;;;-6.72;82.52
33422;BME280;19763;55.798;37.782;2023-02-19T03:47:03;145680.66;;;-6.69;82.21
33422;BME280;19763;55.798;37.782;2023-02-19T03:52:13;145570.72;;;-7.14;81.74
33422;BME280;19763;55.798;37.782;2023-02-19T03:58:00;145578.34;;;-7.11;83.09
33422;BME280;19763;55.798;37.782;2023-02-19T04:03:45;145636.41;;;-6.87;82.20
33422;BME280;19763;55.798;37.782;2023-02-19T04:06:16;145563.16;;;-7.17;81.89
33422;BME280;19763;55.798;37.782;2023-02-19T04:08:48;145561.91;;;-7.18;82.96
33422;BME280;19763;55.798;37.782;2023-02-19T04:11:16;145645.28;;;-6.84;82.92
33422;BME280;19763;55.798;37.782;2023-02-19T04:13:48;145516.44;;;-7.36;82.62
33422;BME280;19763;55.798;37.782;2023-02-19T04:16:20;145531.56;;;-7.30;82.53
33422;BME280;19763;55.798;37.782;2023-02-19T04:18:50;145584.63;;;-7.08;82.69
33422;BME280;19763;55.798;37.782;2023-02-19T04:21:18;145589.69;;;-7.06;82.58
33422;BME280;19763;55.798;37.782;2023-02-19T04:23:45;145645.28;;;-6.84;82.34
33422;BME280;19763;55.798;37.782;2023-02-19T04:26:12;145597.25;;;-7.03;81.02
33422;BME280;19763;55.798;37.782;2023-02-19T04:28:38;145594.72;;;-7.04;82.41
33422;BME280;19763;55.798;37.782;2023-02-19T04:31:05;145633.88;;;-6.88;82.60
33422;BME280;19763;55.798;37.782;2023-02-19T04:33:30;145644.00;;;-6.84;81.54
33422;BME280;19763;55.798;37.782;2023-02-19T04:35:56;145665.47;;;-6.76;81.41
33422;BME280;19763;55.798;37.782;2023-02-19T04:38:21;145599.81;;;-7.02;81.75
33422;BME280;19763;55.798;37.782;2023-02-19T04:40:47;145601.06;;;-7.02;81.44
33422;BME280;19763;55.798;37.782;2023-02-19T04:43:16;145612.41;;;-6.97;82.76
33422;BME280;19763;55.798;37.782;2023-02-19T04:45:42;145649.06;;;-6.82;82.50
33422;BME280;19763;55.798;37.782;2023-02-19T04:48:07;145657.88;;;-6.79;82.57
33422;BME280;19763;55.798;37.782;2023-02-19T04:50:33;145657.88;;;-6.79;82.05
33422;BME280;19763;55.798;37.782;2023-02-19T04:52:58;145625.06;;;-6.92;81.39
33422;BME280;19763;55.798;37.782;2023-02-19T04:55:24;145662.97;;;-6.77;81.99
33422;BME280;19763;55.798;37.782;2023-02-19T04:57:50;145625.06;;;-6.92;81.68
33422;BME280;19763;55.798;37.782;2023-02-19T05:00:15;145627.59;;;-6.91;82.07
33422;BME280;19763;55.798;37.782;2023-02-19T05:02:41;145592.19;;;-7.05;82.42
33422;BME280;19763;55.798;37.782;2023-02-19T05:05:07;145630.09;;;-6.90;83.33
33422;BME280;19763;55.798;37.782;2023-02-19T05:07:32;145511.34;;;-7.38;83.87
33422;BME280;19763;55.798;37.782;2023-02-19T05:09:58;145604.84;;;-7.00;83.07
33422;BME280;19763;55.798;37.782;2023-02-19T05:12:25;145625.06;;;-6.92;83.56
33422;BME280;19763;55.798;37.782;2023-02-19T05:14:50;145657.88;;;-6.79;83.26
33422;BME280;19763;55.798;37.782;2023-02-19T05:17:16;145559.34;;;-7.19;84.22
33422;BME280;19763;55.798;37.782;2023-02-19T05:19:41;145635.19;;;-6.88;82.70
33422;BME280;19763;55.798;37.782;2023-02-19T05:22:07;145623.81;;;-6.92;82.48
33422;BME280;19763;55.798;37.782;2023-02-19T05:24:33;145666.75;;;-6.75;81.73
33422;BME280;19763;55.798;37.782;2023-02-19T05:26:58;145642.75;;;-6.85;81.33
33422;BME280;19763;55.798;37.782;2023-02-19T05:29:24;145609.91;;;-6.98;81.87
33422;BME280;19763;55.798;37.782;2023-02-19T05:31:49;145636.41;;;-6.87;82.73
33422;BME280;19763;55.798;37.782;2023-02-19T05:34:15;145689.47;;;-6.66;82.00
33422;BME280;19763;55.798;37.782;2023-02-19T05:36:40;145680.66;;;-6.69;82.68
33422;BME280;19763;55.798;37.782;2023-02-19T05:39:06;145613.69;;;-6.97;84.00
33422;BME280;19763;55.798;37.782;2023-02-19T05:41:32;145604.84;;;-7.00;83.73
33422;BME280;19763;55.798;37.782;2023-02-19T05:43:58;145681.91;;;-6.69;82.50
33422;BME280;19763;55.798;37.782;2023-02-19T05:46:26;145665.47;;;-6.76;82.78
33422;BME280;19763;55.798;37.782;2023-02-19T05:48:52;145689.47;;;-6.66;82.41
33422;BME280;19763;55.798;37.782;2023-02-19T05:51:21;145673.09;;;-6.72;82.44
33422;BME280;19763;55.798;37.782;2023-02-19T05:53:47;145710.97;;;-6.57;83.20
33422;BME280;19763;55.798;37.782;2023-02-19T05:58:44;145683.16;;;-6.68;82.13
33422;BME280;19763;55.798;37.782;2023-02-19T06:01:17;145716.03;;;-6.55;81.68
33422;BME280;19763;55.798;37.782;2023-02-19T06:03:43;145632.63;;;-6.89;83.44
33422;BME280;19763;55.798;37.782;2023-02-19T06:06:12;145601.06;;;-7.02;82.50
33422;BME280;19763;55.798;37.782;2023-02-19T06:08:38;145713.50;;;-6.56;83.41
33422;BME280;19763;55.798;37.782;2023-02-19T06:11:03;145699.59;;;-6.62;82.77
33422;BME280;19763;55.798;37.782;2023-02-19T06:13:29;145726.16;;;-6.51;83.80
33422;BME280;19763;55.798;37.782;2023-02-19T06:15:54;145702.13;;;-6.61;81.64
33422;BME280;19763;55.798;37.782;2023-02-19T06:18:20;145713.50;;;-6.56;81.27
33422;BME280;19763;55.798;37.782;2023-02-19T06:20:46;145714.78;;;-6.55;82.24
33422;BME280;19763;55.798;37.782;2023-02-19T06:23:12;145687.00;;;-6.67;82.17
33422;BME280;19763;55.798;37.782;2023-02-19T06:25:37;145776.69;;;-6.30;81.55
33422;BME280;19763;55.798;37.782;2023-02-19T06:28:03;145683.16;;;-6.68;82.22
33422;BME280;19763;55.798;37.782;2023-02-19T06:30:29;145769.13;;;-6.33;82.39
33422;BME280;19763;55.798;37.782;2023-02-19T06:32:55;145799.47;;;-6.21;79.86
33422;BME280;19763;55.798;37.782;2023-02-19T06:35:20;145695.81;;;-6.63;81.70
33422;BME280;19763;55.798;37.782;2023-02-19T06:37:47;145729.94;;;-6.49;80.38
33422;BME280;19763;55.798;37.782;2023-02-19T06:40:13;145746.41;;;-6.43;80.03
33422;BME280;19763;55.798;37.782;2023-02-19T06:42:38;145728.69;;;-6.50;80.14
33422;BME280;19763;55.798;37.782;2023-02-19T06:45:04;145721.06;;;-6.53;81.14
33422;BME280;19763;55.798;37.782;2023-02-19T06:47:31;145753.97;;;-6.39;80.65
33422;BME280;19763;55.798;37.782;2023-02-19T06:49:57;145808.31;;;-6.17;80.96
33422;BME280;19763;55.798;37.782;2023-02-19T06:52:22;145810.84;;;-6.16;80.38
33422;BME280;19763;55.798;37.782;2023-02-19T06:54:48;145729.94;;;-6.49;80.69
33422;BME280;19763;55.798;37.782;2023-02-19T06:57:13;145780.50;;;-6.29;80.41
33422;BME280;19763;55.798;37.782;2023-02-19T06:59:39;145761.53;;;-6.36;79.90
33422;BME280;19763;55.798;37.782;2023-02-19T07:02:04;145790.59;;;-6.25;81.72
33422;BME280;19763;55.798;37.782;2023-02-19T07:04:30;145846.25;;;-6.02;81.20
33422;BME280;19763;55.798;37.782;2023-02-19T07:06:56;145851.31;;;-6.00;78.83
33422;BME280;19763;55.798;37.782;2023-02-19T07:09:21;145880.34;;;-5.88;80.48
33422;BME280;19763;55.798;37.782;2023-02-19T07:11:49;145863.91;;;-5.95;79.34
33422;BME280;19763;55.798;37.782;2023-02-19T07:14:16;145838.66;;;-6.05;79.09
33422;BME280;19763;55.798;37.782;2023-02-19T07:16:42;145901.84;;;-5.79;78.44
33422;BME280;19763;55.798;37.782;2023-02-19T07:19:09;145862.66;;;-5.95;78.02
33422;BME280;19763;55.798;37.782;2023-02-19T07:21:35;145904.38;;;-5.78;77.95
33422;BME280;19763;55.798;37.782;2023-02-19T07:24:03;145887.94;;;-5.85;78.23
33422;BME280;19763;55.798;37.782;2023-02-19T07:26:29;145887.94;;;-5.85;78.08
33422;BME280;19763;55.798;37.782;2023-02-19T07:28:55;145911.97;;;-5.75;78.15
33422;BME280;19763;55.798;37.782;2023-02-19T07:31:22;145898.06;;;-5.81;78.43
33422;BME280;19763;55.798;37.782;2023-02-19T07:33:48;145943.59;;;-5.62;77.56
33422;BME280;19763;55.798;37.782;2023-02-19T07:36:16;145877.81;;;-5.89;78.18
33422;BME280;19763;55.798;37.782;2023-02-19T07:38:42;145858.84;;;-5.97;77.01
33422;BME280;19763;55.798;37.782;2023-02-19T07:41:08;145852.56;;;-5.99;77.92
33422;BME280;19763;55.798;37.782;2023-02-19T07:43:36;145879.09;;;-5.88;78.18
33422;BME280;19763;55.798;37.782;2023-02-19T07:46:09;145817.19;;;-6.14;78.82
33422;BME280;19763;55.798;37.782;2023-02-19T07:48:36;145841.22;;;-6.04;79.17
33422;BME280;19763;55.798;37.782;2023-02-19T07:51:04;145807.06;;;-6.18;79.18
33422;BME280;19763;55.798;37.782;2023-02-19T07:53:32;145839.91;;;-6.04;78.74
33422;BME280;19763;55.798;37.782;2023-02-19T07:56:03;145870.22;;;-5.92;78.08
33422;BME280;19763;55.798;37.782;2023-02-19T07:58:29;145850.03;;;-6.00;77.88
33422;BME280;19763;55.798;37.782;2023-02-19T08:00:55;145914.50;;;-5.74;77.61
33422;BME280;19763;55.798;37.782;2023-02-19T08:03:21;145923.34;;;-5.70;78.66
33422;BME280;19763;55.798;37.782;2023-02-19T08:05:46;145992.91;;;-5.42;77.64
33422;BME280;19763;55.798;37.782;2023-02-19T08:08:15;146011.88;;;-5.34;78.25
33422;BME280;19763;55.798;37.782;2023-02-19T08:10:40;145958.75;;;-5.56;77.02
33422;BME280;19763;55.798;37.782;2023-02-19T08:13:27;145925.88;;;-5.69;77.26
33422;BME280;19763;55.798;37.782;2023-02-19T08:18:31;145976.47;;;-5.49;79.11
33422;BME280;19763;55.798;37.782;2023-02-19T08:20:58;145971.41;;;-5.51;77.05
33422;BME280;19763;55.798;37.782;2023-02-19T08:23:25;145942.34;;;-5.63;78.20
33422;BME280;19763;55.798;37.782;2023-02-19T08:25:51;145914.50;;;-5.74;78.64
33422;BME280;19763;55.798;37.782;2023-02-19T08:28:18;145875.25;;;-5.90;79.93
33422;BME280;19763;55.798;37.782;2023-02-19T08:30:45;145807.06;;;-6.18;79.64
33422;BME280;19763;55.798;37.782;2023-02-19T08:33:13;145881.59;;;-5.87;78.90
33422;BME280;19763;55.798;37.782;2023-02-19T08:35:39;145894.25;;;-5.82;80.80
33422;BME280;19763;55.798;37.782;2023-02-19T08:38:06;145866.44;;;-5.94;80.02
33422;BME280;19763;55.798;37.782;2023-02-19T08:40:32;145809.59;;;-6.17;80.83
33422;BME280;19763;55.798;37.782;2023-02-19T08:43:05;145857.63;;;-5.97;80.53
33422;BME280;19763;55.798;37.782;2023-02-19T08:45:31;145853.81;;;-5.99;79.16
33422;BME280;19763;55.798;37.782;2023-02-19T08:47:58;145904.38;;;-5.78;79.87
33422;BME280;19763;55.798;37.782;2023-02-19T08:50:24;145948.63;;;-5.60;78.96
33422;BME280;19763;55.798;37.782;2023-02-19T08:52:50;145914.50;;;-5.74;79.18
33422;BME280;19763;55.798;37.782;2023-02-19T08:55:16;145885.38;;;-5.86;78.32
33422;BME280;19763;55.798;37.782;2023-02-19T08:57:42;145919.53;;;-5.72;79.37
33422;BME280;19763;55.798;37.782;2023-02-19T09:00:08;145951.16;;;-5.59;79.62
33422;BME280;19763;55.798;37.782;2023-02-19T09:02:34;145885.38;;;-5.86;78.56
33422;BME280;19763;55.798;37.782;2023-02-19T09:05:00;145913.22;;;-5.75;78.85
33422;BME280;19763;55.798;37.782;2023-02-19T09:07:26;145879.09;;;-5.88;78.76
33422;BME280;19763;55.798;37.782;2023-02-19T09:09:52;145882.91;;;-5.87;78.32
33422;BME280;19763;55.798;37.782;2023-02-19T09:12:18;145904.38;;;-5.78;78.88
33422;BME280;19763;55.798;37.782;2023-02-19T09:14:44;145920.78;;;-5.72;78.77
33422;BME280;19763;55.798;37.782;2023-02-19T09:17:09;145953.72;;;-5.58;79.71
33422;BME280;19763;55.798;37.782;2023-02-19T09:19:36;145990.38;;;-5.43;78.87
33422;BME280;19763;55.798;37.782;2023-02-19T09:22:03;145971.41;;;-5.51;78.36
33422;BME280;19763;55.798;37.782;2023-02-19T09:24:29;146035.94;;;-5.25;78.46
33422;BME280;19763;55.798;37.782;2023-02-19T09:26:54;146000.50;;;-5.39;77.89
33422;BME280;19763;55.798;37.782;2023-02-19T09:29:24;145914.50;;;-5.74;79.38
33422;BME280;19763;55.798;37.782;2023-02-19T09:31:55;145903.09;;;-5.79;79.24
33422;BME280;19763;55.798;37.782;2023-02-19T09:34:20;145939.78;;;-5.64;79.08
33422;BME280;19763;55.798;37.782;2023-02-19T09:36:48;145942.34;;;-5.63;78.55
33422;BME280;19763;55.798;37.782;2023-02-19T09:39:14;145895.50;;;-5.82;78.33
33422;BME280;19763;55.798;37.782;2023-02-19T09:41:45;145834.88;;;-6.07;79.67
33422;BME280;19763;55.798;37.782;2023-02-19T09:44:33;145913.22;;;-5.75;79.36
33422;BME280;19763;55.798;37.782;2023-02-19T09:47:05;145936.00;;;-5.65;79.54
33422;BME280;19763;55.798;37.782;2023-02-19T09:49:35;145941.03;;;-5.63;78.31
33422;BME280;19763;55.798;37.782;2023-02-19T09:55:04;145871.47;;;-5.92;79.82
33422;BME280;19763;55.798;37.782;2023-02-19T09:57:38;145858.84;;;-5.97;79.82
33422;BME280;19763;55.798;37.782;2023-02-19T10:02:50;145947.38;;;-5.61;78.90
33422;BME280;19763;55.798;37.782;2023-02-19T10:05:16;145971.41;;;-5.51;79.96
33422;BME280;19763;55.798;37.782;2023-02-19T10:07:48;145922.09;;;-5.71;81.10
33422;BME280;19763;55.798;37.782;2023-02-19T10:12:46;145898.06;;;-5.81;81.50
33422;BME280;19763;55.798;37.782;2023-02-19T10:18:11;145915.75;;;-5.74;80.42
33422;BME280;19763;55.798;37.782;2023-02-19T10:20:36;145967.63;;;-5.52;80.57
33422;BME280;19763;55.798;37.782;2023-02-19T10:23:05;145932.22;;;-5.67;78.29
33422;BME280;19763;55.798;37.782;2023-02-19T10:25:32;145930.91;;;-5.67;79.55
33422;BME280;19763;55.798;37.782;2023-02-19T10:27:59;145976.47;;;-5.49;80.22
33422;BME280;19763;55.798;37.782;2023-02-19T10:30:29;146000.50;;;-5.39;79.61
33422;BME280;19763;55.798;37.782;2023-02-19T10:33:08;145972.66;;;-5.50;78.12
33422;BME280;19763;55.798;37.782;2023-02-19T10:35:50;145985.34;;;-5.45;79.67
33422;BME280;19763;55.798;37.782;2023-02-19T10:38:17;145966.34;;;-5.53;79.07
33422;BME280;19763;55.798;37.782;2023-02-19T10:40:44;145958.75;;;-5.56;79.03
33422;BME280;19763;55.798;37.782;2023-02-19T10:43:21;145947.38;;;-5.61;79.32
33422;BME280;19763;55.798;37.782;2023-02-19T10:45:48;146001.78;;;-5.39;79.59
33422;BME280;19763;55.798;37.782;2023-02-19T10:48:23;145957.50;;;-5.57;78.90
33422;BME280;19763;55.798;37.782;2023-02-19T10:50:58;145981.53;;;-5.47;78.66
33422;BME280;19763;55.798;37.782;2023-02-19T10:53:46;145984.03;;;-5.46;78.82
33422;BME280;19763;55.798;37.782;2023-02-19T10:56:23;145965.09;;;-5.53;78.79
33422;BME280;19763;55.798;37.782;2023-02-19T10:58:49;145938.50;;;-5.64;77.97
33422;BME280;19763;55.798;37.782;2023-02-19T11:01:23;145938.50;;;-5.64;79.26
33422;BME280;19763;55.798;37.782;2023-02-19T11:04:33;145976.47;;;-5.49;77.90
33422;BME280;19763;55.798;37.782;2023-02-19T11:06:39;146073.91;;;-5.09;77.95
33422;BME280;19763;55.798;37.782;2023-02-19T11:09:05;146071.34;;;-5.10;77.26
33422;BME280;19763;55.798;37.782;2023-02-19T11:11:49;146161.25;;;-4.74;78.28
33422;BME280;19763;55.798;37.782;2023-02-19T11:14:17;146210.63;;;-4.54;76.75
33422;BME280;19763;55.798;37.782;2023-02-19T11:16:46;146153.66;;;-4.77;76.03
33422;BME280;19763;55.798;37.782;2023-02-19T11:19:28;146201.78;;;-4.57;75.56
33422;BME280;19763;55.798;37.782;2023-02-19T11:21:55;146135.94;;;-4.84;74.64
33422;BME280;19763;55.798;37.782;2023-02-19T11:24:27;146082.78;;;-5.06;76.59
33422;BME280;19763;55.798;37.782;2023-02-19T11:26:56;146071.34;;;-5.10;75.80
33422;BME280;19763;55.798;37.782;2023-02-19T11:29:24;146130.84;;;-4.86;77.69
33422;BME280;19763;55.798;37.782;2023-02-19T11:31:53;146154.91;;;-4.76;76.66
33422;BME280;19763;55.798;37.782;2023-02-19T11:37:13;146120.75;;;-4.90;77.24
33422;BME280;19763;55.798;37.782;2023-02-19T11:39:42;146087.81;;;-5.04;77.11
33422;BME280;19763;55.798;37.782;2023-02-19T11:45:12;146105.53;;;-4.96;75.68
33422;BME280;19763;55.798;37.782;2023-02-19T11:48:41;146056.19;;;-5.16;76.98
33422;BME280;19763;55.798;37.782;2023-02-19T11:53:24;146161.25;;;-4.74;76.63
33422;BME280;19763;55.798;37.782;2023-02-19T11:56:19;146056.19;;;-5.16;77.75
33422;BME280;19763;55.798;37.782;2023-02-19T11:59:51;146020.75;;;-5.31;78.48
33422;BME280;19763;55.798;37.782;2023-02-19T12:12:39;146058.72;;;-5.15;77.71
33422;BME280;19763;55.798;37.782;2023-02-19T12:23:59;146006.84;;;-5.37;78.29
33422;BME280;19763;55.798;37.782;2023-02-19T12:29:26;145997.97;;;-5.40;77.44
33422;BME280;19763;55.798;37.782;2023-02-19T12:37:56;146022.00;;;-5.30;76.56
33422;BME280;19763;55.798;37.782;2023-02-19T12:43:19;146091.63;;;-5.02;76.94
33422;BME280;19763;55.798;37.782;2023-02-19T12:45:59;146101.75;;;-4.98;76.88
33422;BME280;19763;55.798;37.782;2023-02-19T12:51:13;146076.44;;;-5.08;77.21
33422;BME280;19763;55.798;37.782;2023-02-19T12:56:21;146049.84;;;-5.19;77.54
33422;BME280;19763;55.798;37.782;2023-02-19T12:59:02;146009.38;;;-5.35;76.84
33422;BME280;19763;55.798;37.782;2023-02-19T13:01:34;146010.63;;;-5.35;78.14
33422;BME280;19763;55.798;37.782;2023-02-19T13:04:25;146049.84;;;-5.19;77.77
33422;BME280;19763;55.798;37.782;2023-02-19T13:07:10;146029.63;;;-5.27;76.74
33422;BME280;19763;55.798;37.782;2023-02-19T13:09:42;146063.78;;;-5.13;77.66
33422;BME280;19763;55.798;37.782;2023-02-19T13:12:16;146061.28;;;-5.14;78.02
33422;BME280;19763;55.798;37.782;2023-02-19T13:14:48;146075.19;;;-5.09;77.12
33422;BME280;19763;55.798;37.782;2023-02-19T13:20:30;146085.28;;;-5.05;80.50
33422;BME280;19763;55.798;37.782;2023-02-19T13:23:05;146134.63;;;-4.85;79.33
33422;BME280;19763;55.798;37.782;2023-02-19T13:31:38;146134.63;;;-4.85;77.66
33422;BME280;19763;55.798;37.782;2023-02-19T13:36:50;145973.97;;;-5.50;78.69
33422;BME280;19763;55.798;37.782;2023-02-19T13:39:18;146042.25;;;-5.22;80.30
33422;BME280;19763;55.798;37.782;2023-02-19T13:41:51;146041.00;;;-5.23;79.64
33422;BME280;19763;55.798;37.782;2023-02-19T13:44:18;146065.06;;;-5.13;78.30
33422;BME280;19763;55.798;37.782;2023-02-19T13:46:46;146097.94;;;-4.99;79.78
33422;BME280;19763;55.798;37.782;2023-02-19T13:51:57;146140.97;;;-4.82;80.60
33422;BME280;19763;55.798;37.782;2023-02-19T13:56:49;146006.84;;;-5.37;81.36
33422;BME280;19763;55.798;37.782;2023-02-19T13:59:36;146047.34;;;-5.20;80.99
33422;BME280;19763;55.798;37.782;2023-02-19T14:04:51;146113.13;;;-4.93;79.51
33422;BME280;19763;55.798;37.782;2023-02-19T14:14:47;146051.13;;;-5.18;80.64
33422;BME280;19763;55.798;37.782;2023-02-19T14:23:15;146065.06;;;-5.13;81.56
33422;BME280;19763;55.798;37.782;2023-02-19T14:33:52;146047.34;;;-5.20;81.39
33422;BME280;19763;55.798;37.782;2023-02-19T14:39:02;146011.88;;;-5.34;82.27
33422;BME280;19763;55.798;37.782;2023-02-19T14:41:31;146013.19;;;-5.34;80.45
33422;BME280;19763;55.798;37.782;2023-02-19T14:43:58;146016.97;;;-5.32;81.31
33422;BME280;19763;55.798;37.782;2023-02-19T14:46:35;146041.00;;;-5.23;81.21
33422;BME280;19763;55.798;37.782;2023-02-19T14:51:57;145963.84;;;-5.54;81.12
33422;BME280;19763;55.798;37.782;2023-02-19T14:54:43;146068.84;;;-5.11;81.68
33422;BME280;19763;55.798;37.782;2023-02-19T14:57:25;146034.69;;;-5.25;80.05
33422;BME280;19763;55.798;37.782;2023-02-19T14:59:55;146037.22;;;-5.24;80.93
33422;BME280;19763;55.798;37.782;2023-02-19T15:02:24;146059.97;;;-5.15;81.50
33422;BME280;19763;55.798;37.782;2023-02-19T15:04:53;146066.31;;;-5.12;79.82
33422;BME280;19763;55.798;37.782;2023-02-19T15:07:30;146041.00;;;-5.23;80.15
33422;BME280;19763;55.798;37.782;2023-02-19T15:10:02;146095.41;;;-5.00;80.20
33422;BME280;19763;55.798;37.782;2023-02-19T15:12:34;146034.69;;;-5.25;79.90
33422;BME280;19763;55.798;37.782;2023-02-19T15:15:03;146038.47;;;-5.24;80.16